createdAt,value
2017-10-22T00:00:55.627Z,97399.72
2017-10-22T00:02:32.528Z,97381.00
2017-10-22T00:04:09.627Z,97391.52
2017-10-22T00:05:47.194Z,97398.92
2017-10-22T00:07:25.318Z,97389.67
2017-10-22T00:09:03.544Z,97400.20
2017-10-22T00:10:44.728Z,97385.86
2017-10-22T00:12:22.032Z,97375.34
2017-10-22T00:13:59.945Z,97345.70
2017-10-22T00:15:36.643Z,97310.80
2017-10-22T00:17:13.404Z,97311.66
2017-10-22T00:18:50.651Z,97335.23
2017-10-22T00:20:27.346Z,97334.27
2017-10-22T00:22:05.747Z,97339.13
2017-10-22T00:23:44.319Z,97287.06
2017-10-22T00:25:21.293Z,97262.13
2017-10-22T00:26:58.237Z,97220.28
2017-10-22T00:28:35.082Z,97202.86
2017-10-22T00:30:13.296Z,97206.30
2017-10-22T00:31:50.557Z,97201.80
2017-10-22T00:33:27.451Z,97207.36
2017-10-22T00:35:06.004Z,97225.57
2017-10-22T00:36:43.027Z,97245.66
2017-10-22T00:38:20.227Z,97286.72
2017-10-22T00:39:57.714Z,97242.94
2017-10-22T00:41:35.108Z,97245.66
2017-10-22T00:43:12.050Z,97264.80
2017-10-22T00:44:48.800Z,97259.50
2017-10-22T00:46:26.359Z,97266.19
2017-10-22T00:48:03.389Z,97292.89
2017-10-22T00:49:40.871Z,97299.31
2017-10-22T00:51:17.988Z,97310.75
2017-10-22T00:52:54.854Z,97319.08
2017-10-22T00:54:32.574Z,97311.23
2017-10-22T00:56:09.346Z,97304.60
2017-10-22T00:57:46.957Z,97319.50
2017-10-22T00:59:23.821Z,97301.98
2017-10-22T01:01:01.045Z,97285.35
2017-10-22T01:02:37.822Z,97253.42
2017-10-22T01:04:16.062Z,97219.91
2017-10-22T01:05:53.658Z,97200.19
2017-10-22T01:07:30.418Z,97164.96
2017-10-22T01:09:07.650Z,97123.88
2017-10-22T01:10:45.702Z,97009.65
2017-10-22T01:12:25.315Z,97061.85
2017-10-22T01:14:03.130Z,97091.16
2017-10-22T01:15:39.954Z,97135.64
2017-10-22T01:17:17.848Z,97118.17
2017-10-22T01:18:54.661Z,97116.47
2017-10-22T01:20:31.650Z,97093.29
2017-10-22T01:22:08.579Z,97091.16
2017-10-22T01:23:45.957Z,97110.33
2017-10-22T01:25:23.277Z,97136.55
2017-10-22T01:27:00.214Z,97085.76
2017-10-22T01:28:37.069Z,97086.73
2017-10-22T01:30:16.201Z,97065.44
2017-10-22T01:31:53.219Z,97047.06
2017-10-22T01:33:30.836Z,97067.50
2017-10-22T01:35:08.878Z,97081.45
2017-10-22T01:36:46.108Z,97041.30
2017-10-22T01:38:22.946Z,96982.48
2017-10-22T01:40:00.659Z,96966.81
2017-10-22T01:41:37.675Z,96939.77
2017-10-22T01:43:15.047Z,96921.05
2017-10-22T01:44:52.216Z,96958.53
2017-10-22T01:46:29.152Z,96984.24
2017-10-22T01:48:06.820Z,97024.02
2017-10-22T01:49:44.225Z,97036.13
2017-10-22T01:51:21.671Z,97001.27
2017-10-22T01:52:58.759Z,96992.95
2017-10-22T01:54:36.377Z,96985.21
2017-10-22T01:56:13.625Z,96932.28
2017-10-22T01:57:50.573Z,96939.02
2017-10-22T01:59:27.397Z,96972.41
2017-10-22T02:01:04.718Z,96995.20
2017-10-22T02:02:41.776Z,97016.55
2017-10-22T02:04:18.663Z,97053.20
2017-10-22T02:05:55.517Z,97067.92
2017-10-22T02:07:33.193Z,97060.45
2017-10-22T02:09:10.585Z,97038.68
2017-10-22T02:10:47.425Z,97033.45
2017-10-22T02:12:24.340Z,96990.06
2017-10-22T02:14:02.031Z,97023.59
2017-10-22T02:15:39.658Z,97047.85
2017-10-22T02:17:17.807Z,97047.80
2017-10-22T02:18:54.689Z,97058.33
2017-10-22T02:20:31.337Z,97066.70
2017-10-22T02:22:08.369Z,97090.62
2017-10-22T02:23:45.060Z,97102.52
2017-10-22T02:25:21.656Z,97076.25
2017-10-22T02:26:59.239Z,97074.37
2017-10-22T02:28:36.922Z,97084.54
2017-10-22T02:30:14.669Z,97047.00
2017-10-22T02:31:51.272Z,96988.58
2017-10-22T02:33:27.880Z,96964.57
2017-10-22T02:35:05.921Z,96991.67
2017-10-22T02:36:42.654Z,97002.55
2017-10-22T02:38:19.359Z,97001.27
2017-10-22T02:39:56.776Z,96977.26
2017-10-22T02:41:34.405Z,96961.95
2017-10-22T02:43:11.111Z,96979.44
2017-10-22T02:44:47.752Z,96993.38
2017-10-22T02:46:24.505Z,96990.01
2017-10-22T02:48:01.641Z,96966.81
2017-10-22T02:49:38.501Z,96934.52
2017-10-22T02:51:15.307Z,96959.44
2017-10-22T02:52:52.100Z,96962.48
2017-10-22T02:54:29.144Z,96929.30
2017-10-22T02:56:06.031Z,96877.53
2017-10-22T02:57:43.523Z,96902.88
2017-10-22T02:59:20.144Z,96952.88
2017-10-22T03:00:56.802Z,96869.68
2017-10-22T03:02:34.229Z,96823.39
2017-10-22T03:04:10.990Z,96845.38
2017-10-22T03:05:48.513Z,96843.14
2017-10-22T03:07:27.768Z,96879.66
2017-10-22T03:09:04.463Z,96889.25
2017-10-22T03:10:41.104Z,96924.56
2017-10-22T03:12:17.754Z,96924.39
2017-10-22T03:13:54.847Z,96937.83
2017-10-22T03:15:31.572Z,96945.84
2017-10-22T03:17:08.262Z,96919.71
2017-10-22T03:18:45.722Z,96923.23
2017-10-22T03:20:22.788Z,96928.81
2017-10-22T03:21:59.407Z,96931.91
2017-10-22T03:23:38.455Z,96950.22
2017-10-22T03:25:17.762Z,96925.84
2017-10-22T03:26:54.951Z,96891.83
2017-10-22T03:28:32.429Z,96901.90
2017-10-22T03:30:09.035Z,96893.52
2017-10-22T03:31:45.896Z,96881.36
2017-10-22T03:33:22.985Z,96849.66
2017-10-22T03:34:59.676Z,96917.20
2017-10-22T03:36:37.409Z,96972.52
2017-10-22T03:38:13.943Z,96974.22
2017-10-22T03:39:51.036Z,96983.39
2017-10-22T03:41:27.889Z,96965.05
2017-10-22T03:43:04.540Z,96969.42
2017-10-22T03:44:41.919Z,97011.27
2017-10-22T03:46:19.299Z,97060.94
2017-10-22T03:47:56.041Z,97069.20
2017-10-22T03:49:32.623Z,97103.31
2017-10-22T03:51:09.166Z,97100.27
2017-10-22T03:52:47.141Z,97073.09
2017-10-22T03:54:23.860Z,96982.48
2017-10-22T03:56:01.018Z,96844.89
2017-10-22T03:57:38.853Z,96833.55
2017-10-22T03:59:16.683Z,96813.16
2017-10-22T04:00:53.630Z,96817.48
2017-10-22T04:02:30.383Z,96796.09
2017-10-22T04:04:07.264Z,96787.42
2017-10-22T04:05:46.613Z,96804.47
2017-10-22T04:07:26.276Z,96785.81
2017-10-22T04:10:45.521Z,96721.73
2017-10-22T04:12:23.525Z,96734.40
2017-10-22T04:14:00.277Z,96702.81
2017-10-22T04:15:37.076Z,96701.58
2017-10-22T04:17:14.789Z,96594.78
2017-10-22T04:18:51.974Z,96552.59
2017-10-22T04:20:29.837Z,96543.36
2017-10-22T04:22:06.875Z,96530.46
2017-10-22T04:23:43.763Z,96531.73
2017-10-22T04:25:22.080Z,96476.48
2017-10-22T04:26:59.778Z,96426.92
2017-10-22T04:28:36.443Z,96319.27
2017-10-22T04:30:13.260Z,96260.84
2017-10-22T04:31:52.454Z,96331.12
2017-10-22T04:33:29.628Z,96368.42
2017-10-22T04:35:06.324Z,96375.31
2017-10-22T04:36:43.765Z,96398.88
2017-10-22T04:38:20.931Z,96387.80
2017-10-22T04:39:59.114Z,96390.53
2017-10-22T04:41:35.695Z,96391.44
2017-10-22T04:43:12.378Z,96390.11
2017-10-22T04:44:49.702Z,96369.27
2017-10-22T04:46:26.717Z,96367.45
2017-10-22T04:48:04.366Z,96371.93
2017-10-22T04:49:41.778Z,96294.24
2017-10-22T04:51:18.550Z,96257.33
2017-10-22T04:52:55.316Z,96269.06
2017-10-22T04:54:32.334Z,96240.08
2017-10-22T04:56:08.869Z,96259.21
2017-10-22T04:57:48.153Z,96210.12
2017-10-22T04:59:25.520Z,96163.73
2017-10-22T05:01:02.425Z,96178.05
2017-10-22T05:02:39.144Z,96165.41
2017-10-22T05:04:17.077Z,96112.44
2017-10-22T05:05:55.592Z,96087.64
2017-10-22T05:07:32.381Z,96102.08
2017-10-22T05:09:10.552Z,96128.14
2017-10-22T05:10:48.660Z,96175.81
2017-10-22T05:12:25.598Z,96182.66
2017-10-22T05:14:02.173Z,96184.90
2017-10-22T05:15:38.811Z,96227.48
2017-10-22T05:17:15.773Z,96263.92
2017-10-22T05:18:52.405Z,96289.89
2017-10-22T05:20:29.174Z,96233.06
2017-10-22T05:22:06.562Z,96271.73
2017-10-22T05:23:43.688Z,96292.00
2017-10-22T05:25:20.321Z,96287.77
2017-10-22T05:26:56.947Z,96304.55
2017-10-22T05:28:34.485Z,96268.22
2017-10-22T05:30:11.207Z,96211.40
2017-10-22T05:31:48.441Z,96236.63
2017-10-22T05:33:25.135Z,96194.03
2017-10-22T05:35:01.722Z,96177.14
2017-10-22T05:36:39.847Z,96241.89
2017-10-22T05:38:17.471Z,96270.75
2017-10-22T05:39:54.090Z,96295.36
2017-10-22T05:41:30.799Z,96300.62
2017-10-22T05:43:08.608Z,96273.12
2017-10-22T05:44:45.256Z,96301.89
2017-10-22T05:46:22.199Z,96375.92
2017-10-22T05:47:58.754Z,96375.50
2017-10-22T05:49:35.774Z,96400.58
2017-10-22T05:51:13.195Z,96427.05
2017-10-22T05:52:49.813Z,96430.20
2017-10-22T05:54:26.483Z,96422.75
2017-10-22T05:56:03.492Z,96410.63
2017-10-22T05:57:39.994Z,96405.90
2017-10-22T05:59:17.025Z,96375.92
2017-10-22T06:00:54.068Z,96339.97
2017-10-22T06:02:32.137Z,96258.79
2017-10-22T06:04:08.865Z,96264.41
2017-10-22T06:05:45.715Z,96301.23
2017-10-22T06:07:22.539Z,96263.98
2017-10-22T06:09:00.704Z,96293.40
2017-10-22T06:10:37.697Z,96322.00
2017-10-22T06:12:15.254Z,96368.09
2017-10-22T06:13:52.019Z,96422.75
2017-10-22T06:15:30.786Z,96366.45
2017-10-22T06:17:07.582Z,96347.77
2017-10-22T06:18:45.189Z,96348.61
2017-10-22T06:20:21.755Z,96372.99
2017-10-22T06:21:58.718Z,96389.84
2017-10-22T06:23:37.923Z,96422.45
2017-10-22T06:25:14.657Z,96458.13
2017-10-22T06:26:51.491Z,96436.73
2017-10-22T06:28:29.332Z,96531.10
2017-10-22T06:30:06.055Z,96573.61
2017-10-22T06:31:43.030Z,96527.16
2017-10-22T06:33:19.880Z,96549.48
2017-10-22T06:34:57.232Z,96530.61
2017-10-22T06:36:35.306Z,96562.77
2017-10-22T06:38:11.921Z,96570.09
2017-10-22T06:39:49.387Z,96589.75
2017-10-22T06:41:26.437Z,96608.02
2017-10-22T06:43:03.143Z,96614.08
2017-10-22T06:44:39.739Z,96652.45
2017-10-22T06:46:16.489Z,96656.73
2017-10-22T06:47:53.461Z,96604.66
2017-10-22T06:49:30.043Z,96616.31
2017-10-22T06:51:06.803Z,96648.09
2017-10-22T06:52:43.673Z,96662.84
2017-10-22T06:54:21.485Z,96622.50
2017-10-22T06:55:58.258Z,96601.98
2017-10-22T06:57:35.788Z,96520.91
2017-10-22T06:59:12.504Z,96519.09
2017-10-22T07:00:50.436Z,96502.07
2017-10-22T07:02:27.351Z,96458.19
2017-10-22T07:04:04.246Z,96502.19
2017-10-22T07:05:42.014Z,96521.33
2017-10-22T07:07:19.413Z,96592.15
2017-10-22T07:08:56.101Z,96651.30
2017-10-22T07:10:32.683Z,96746.22
2017-10-22T07:12:09.372Z,96751.31
2017-10-22T07:13:46.493Z,96810.10
2017-10-22T07:15:26.064Z,96767.53
2017-10-22T07:17:02.692Z,96725.70
2017-10-22T07:18:39.407Z,96740.88
2017-10-22T07:20:16.487Z,96754.41
2017-10-22T07:21:53.181Z,96766.20
2017-10-22T07:23:29.787Z,96700.45
2017-10-22T07:25:07.195Z,96646.52
2017-10-22T07:26:44.336Z,96648.22
2017-10-22T07:28:21.456Z,96685.33
2017-10-22T07:29:58.667Z,96665.79
2017-10-22T07:31:35.623Z,96659.73
2017-10-22T07:33:12.819Z,96634.43
2017-10-22T07:34:49.623Z,96639.64
2017-10-22T07:36:27.109Z,96623.52
2017-10-22T07:38:04.559Z,96641.41
2017-10-22T07:39:41.683Z,96686.24
2017-10-22T07:41:19.161Z,96682.73
2017-10-22T07:42:55.850Z,96611.80
2017-10-22T07:44:32.511Z,96589.12
2017-10-22T07:46:11.386Z,96591.42
2017-10-22T07:47:48.168Z,96522.36
2017-10-22T07:49:24.792Z,96488.84
2017-10-22T07:51:02.297Z,96421.73
2017-10-22T07:52:40.230Z,96488.00
2017-10-22T07:54:17.103Z,96577.16
2017-10-22T07:55:53.819Z,96568.02
2017-10-22T07:57:30.446Z,96634.06
2017-10-22T07:59:07.463Z,96612.77
2017-10-22T08:00:45.046Z,96557.20
2017-10-22T08:02:21.576Z,96459.38
2017-10-22T08:04:19.453Z,96499.44
2017-10-22T08:05:56.312Z,96563.72
2017-10-22T08:07:34.605Z,96592.81
2017-10-22T08:09:11.553Z,96602.81
2017-10-22T08:10:49.778Z,96630.19
2017-10-22T08:12:26.439Z,96652.39
2017-10-22T08:14:03.816Z,96615.92
2017-10-22T08:15:40.705Z,96604.90
2017-10-22T08:17:17.539Z,96511.67
2017-10-22T08:18:56.446Z,96505.98
2017-10-22T08:20:34.711Z,96497.75
2017-10-22T08:22:11.247Z,96459.44
2017-10-22T08:23:48.196Z,96442.16
2017-10-22T08:25:24.813Z,96432.59
2017-10-22T08:27:01.713Z,96576.73
2017-10-22T08:28:39.127Z,96688.18
2017-10-22T08:30:18.490Z,96701.27
2017-10-22T08:31:55.663Z,96653.39
2017-10-22T08:33:32.246Z,96662.94
2017-10-22T08:35:08.857Z,96722.52
2017-10-22T08:36:45.554Z,96731.76
2017-10-22T08:38:22.124Z,96714.76
2017-10-22T08:39:58.646Z,96752.16
2017-10-22T08:41:35.734Z,96808.25
2017-10-22T08:43:12.735Z,96843.64
2017-10-22T08:44:50.431Z,96907.53
2017-10-22T08:46:27.736Z,96847.43
2017-10-22T08:48:06.011Z,96901.52
2017-10-22T08:49:44.379Z,96956.02
2017-10-22T08:51:21.099Z,96928.44
2017-10-22T08:52:57.966Z,96884.93
2017-10-22T08:54:35.515Z,96818.74
2017-10-22T08:56:12.964Z,96796.91
2017-10-22T08:57:49.672Z,96728.39
2017-10-22T08:59:26.562Z,96722.33
2017-10-22T09:01:04.533Z,96713.97
2017-10-22T09:02:41.931Z,96665.66
2017-10-22T09:04:18.984Z,96707.94
2017-10-22T09:05:55.939Z,96751.46
2017-10-22T09:07:32.645Z,96794.45
2017-10-22T09:09:09.796Z,96815.41
2017-10-22T09:10:46.537Z,96802.67
2017-10-22T09:12:23.226Z,96757.91
2017-10-22T09:14:00.206Z,96726.63
2017-10-22T09:15:38.155Z,96725.79
2017-10-22T09:17:15.401Z,96700.12
2017-10-22T09:18:52.531Z,96688.78
2017-10-22T09:20:30.291Z,96636.91
2017-10-22T09:22:07.102Z,96670.58
2017-10-22T09:25:36.767Z,96745.40
2017-10-22T09:27:14.369Z,96754.92
2017-10-22T09:28:51.583Z,96766.28
2017-10-22T09:30:30.137Z,96794.20
2017-10-22T09:32:08.310Z,96816.80
2017-10-22T09:33:45.046Z,96815.41
2017-10-22T09:35:22.106Z,96886.86
2017-10-22T09:37:00.090Z,96816.31
2017-10-22T09:38:37.559Z,96850.73
2017-10-22T09:40:15.086Z,96913.05
2017-10-22T09:41:52.473Z,96906.49
2017-10-22T09:43:29.198Z,96849.03
2017-10-22T09:45:07.017Z,96759.34
2017-10-22T09:46:45.071Z,96793.78
2017-10-22T09:49:26.230Z,96772.89
2017-10-22T09:51:04.166Z,96790.32
2017-10-22T09:52:41.158Z,96833.90
2017-10-22T09:54:19.172Z,96806.45
2017-10-22T09:55:56.353Z,96819.95
2017-10-22T09:57:33.736Z,96917.96
2017-10-22T09:59:10.750Z,96911.34
2017-10-22T10:00:48.410Z,96941.84
2017-10-22T10:02:25.334Z,96929.22
2017-10-22T10:04:02.031Z,96873.45
2017-10-22T10:05:38.764Z,96921.84
2017-10-22T10:07:15.564Z,96871.69
2017-10-22T10:08:53.402Z,96880.01
2017-10-22T10:10:30.410Z,96938.50
2017-10-22T10:12:07.963Z,96906.28
2017-10-22T10:13:45.064Z,96777.74
2017-10-22T10:15:22.412Z,96805.18
2017-10-22T10:17:02.540Z,96822.19
2017-10-22T10:18:40.466Z,96841.21
2017-10-22T10:20:18.579Z,96853.95
2017-10-22T10:21:55.680Z,96926.27
2017-10-22T10:23:32.490Z,96955.77
2017-10-22T10:25:09.429Z,96855.59
2017-10-22T10:26:46.583Z,96854.80
2017-10-22T10:28:23.528Z,96868.35
2017-10-22T10:30:00.504Z,96907.13
2017-10-22T10:31:37.871Z,96902.33
2017-10-22T10:33:14.945Z,96863.98
2017-10-22T10:34:52.070Z,96846.61
2017-10-22T10:36:29.808Z,96842.66
2017-10-22T10:38:06.681Z,96835.72
2017-10-22T10:39:43.930Z,96825.70
2017-10-22T10:41:21.095Z,96905.85
2017-10-22T10:42:58.396Z,96810.58
2017-10-22T10:44:36.402Z,96781.74
2017-10-22T10:46:14.008Z,96847.57
2017-10-22T10:47:51.072Z,96935.13
2017-10-22T10:49:28.686Z,96956.41
2017-10-22T10:51:05.651Z,96933.86
2017-10-22T10:52:42.770Z,96970.77
2017-10-22T10:54:20.373Z,96958.17
2017-10-22T10:55:58.369Z,96904.16
2017-10-22T10:57:36.810Z,96949.12
2017-10-22T10:59:15.207Z,96978.23
2017-10-22T11:00:53.103Z,97005.61
2017-10-22T11:02:33.217Z,97032.72
2017-10-22T11:04:10.626Z,97013.56
2017-10-22T11:05:47.877Z,96987.79
2017-10-22T11:07:24.787Z,96922.23
2017-10-22T11:09:01.821Z,96956.04
2017-10-22T11:10:38.755Z,96983.14
2017-10-22T11:12:16.910Z,96971.00
2017-10-22T11:13:55.099Z,96893.77
2017-10-22T11:15:32.877Z,96967.36
2017-10-22T11:17:10.013Z,96908.16
2017-10-22T11:18:48.466Z,96940.95
2017-10-22T11:20:25.481Z,97011.31
2017-10-22T11:22:02.234Z,97114.87
2017-10-22T11:23:39.479Z,97169.74
2017-10-22T11:25:17.336Z,97190.31
2017-10-22T11:26:55.565Z,97156.67
2017-10-22T11:28:35.260Z,97067.73
2017-10-22T11:30:12.452Z,97019.27
2017-10-22T11:31:50.393Z,97081.02
2017-10-22T11:33:27.843Z,97117.59
2017-10-22T11:35:16.119Z,97123.98
2017-10-22T11:36:53.683Z,97207.78
2017-10-22T11:38:31.416Z,97189.52
2017-10-22T11:40:08.303Z,97299.94
2017-10-22T11:41:45.117Z,97320.95
2017-10-22T11:43:22.382Z,97115.35
2017-10-22T11:45:00.210Z,97121.48
2017-10-22T11:46:37.917Z,97174.23
2017-10-22T11:48:15.965Z,97195.17
2017-10-22T11:49:54.673Z,97217.02
2017-10-22T11:51:32.013Z,97263.34
2017-10-22T11:53:10.154Z,97191.16
2017-10-22T11:54:47.086Z,97038.58
2017-10-22T11:57:59.995Z,97100.19
2017-10-22T11:59:37.828Z,97290.02
2017-10-22T12:01:16.652Z,97260.67
2017-10-22T12:02:53.579Z,97305.34
2017-10-22T12:04:30.650Z,97274.30
2017-10-22T12:06:07.768Z,97286.63
2017-10-22T12:07:46.640Z,97286.91
2017-10-22T12:09:23.962Z,97298.34
2017-10-22T12:11:31.324Z,97214.47
2017-10-22T12:13:08.862Z,97214.95
2017-10-22T12:14:45.791Z,97249.87
2017-10-22T12:16:23.672Z,97279.95
2017-10-22T12:18:02.468Z,97320.21
2017-10-22T12:19:40.191Z,97343.36
2017-10-22T12:21:17.925Z,97397.55
2017-10-22T12:22:55.444Z,97401.07
2017-10-22T12:24:32.533Z,97405.84
2017-10-22T12:26:09.791Z,97367.36
2017-10-22T12:27:46.741Z,97397.60
2017-10-22T12:29:23.624Z,97431.20
2017-10-22T12:31:01.322Z,97414.55
2017-10-22T12:32:38.754Z,97370.52
2017-10-22T12:34:15.918Z,97290.50
2017-10-22T12:35:54.869Z,97247.04
2017-10-22T12:37:32.411Z,97321.23
2017-10-22T12:39:11.532Z,97424.66
2017-10-22T12:40:49.659Z,97494.52
2017-10-22T12:42:27.808Z,97598.20
2017-10-22T12:44:06.203Z,97562.02
2017-10-22T12:45:44.225Z,97549.74
2017-10-22T12:48:52.094Z,97581.98
2017-10-22T12:50:29.414Z,97663.90
2017-10-22T12:52:06.705Z,97749.78
2017-10-22T12:53:44.560Z,97782.95
2017-10-22T12:55:21.798Z,97800.59
2017-10-22T12:56:59.788Z,97684.04
2017-10-22T12:58:37.661Z,97657.42
2017-10-22T13:00:17.676Z,97654.80
2017-10-22T13:01:55.180Z,97703.33
2017-10-22T13:03:32.769Z,97721.00
2017-10-22T13:05:10.606Z,97749.78
2017-10-22T13:06:47.456Z,97840.12
2017-10-22T13:08:24.484Z,97775.61
2017-10-22T13:10:03.231Z,97655.17
2017-10-22T13:11:40.022Z,97646.00
2017-10-22T13:13:16.748Z,97619.34
2017-10-22T13:14:54.820Z,97629.56
2017-10-22T13:16:31.878Z,97510.48
2017-10-22T13:18:09.539Z,97484.20
2017-10-22T13:19:47.280Z,97415.16
2017-10-22T13:21:25.666Z,97382.04
2017-10-22T13:23:03.340Z,97337.89
2017-10-22T13:24:40.636Z,97400.81
2017-10-22T13:26:17.395Z,97481.31
2017-10-22T13:27:54.979Z,97354.59
2017-10-22T13:29:32.320Z,97383.86
2017-10-22T13:31:10.454Z,97547.23
2017-10-22T13:32:47.690Z,97555.49
2017-10-22T13:34:24.962Z,97596.70
2017-10-22T13:36:04.270Z,97515.18
2017-10-22T13:37:41.505Z,97553.33
2017-10-22T13:39:20.586Z,97522.35
2017-10-22T13:41:00.926Z,97622.02
2017-10-22T13:42:40.302Z,97594.45
2017-10-22T13:44:17.699Z,97549.23
2017-10-22T13:45:56.271Z,97534.45
2017-10-22T13:47:36.241Z,97524.91
2017-10-22T13:49:14.499Z,97390.86
2017-10-22T13:50:51.620Z,97370.29
2017-10-22T13:52:28.803Z,97468.25
2017-10-22T13:54:07.324Z,97608.80
2017-10-22T13:55:45.101Z,97600.12
2017-10-22T13:57:22.346Z,97410.00
2017-10-22T13:58:59.428Z,97463.38
2017-10-22T14:00:38.030Z,97530.64
2017-10-22T14:02:14.789Z,97523.63
2017-10-22T14:03:53.094Z,97495.70
2017-10-22T14:05:31.277Z,97548.95
2017-10-22T14:07:08.492Z,97638.79
2017-10-22T14:08:45.403Z,97720.52
2017-10-22T14:10:23.593Z,97781.83
2017-10-22T14:12:00.767Z,97563.46
2017-10-22T14:13:38.754Z,97379.08
2017-10-22T14:15:16.625Z,97431.08
2017-10-22T14:16:54.850Z,97580.09
2017-10-22T14:18:32.071Z,97654.09
2017-10-22T14:20:11.044Z,97722.63
2017-10-22T14:21:48.860Z,97744.14
2017-10-22T14:23:26.485Z,97718.43
2017-10-22T14:25:04.938Z,97747.30
2017-10-22T14:26:42.340Z,97827.56
2017-10-22T14:28:20.048Z,97848.53
2017-10-22T14:29:57.690Z,97909.03
2017-10-22T14:31:37.438Z,97984.83
2017-10-22T14:33:15.597Z,98020.31
2017-10-22T14:34:53.047Z,97916.53
2017-10-22T14:36:31.452Z,97905.49
2017-10-22T14:38:09.099Z,97863.02
2017-10-22T14:39:47.601Z,97717.52
2017-10-22T14:41:26.074Z,97530.64
2017-10-22T14:43:05.482Z,97562.70
2017-10-22T14:44:46.092Z,97690.84
2017-10-22T14:46:26.322Z,97800.30
2017-10-22T14:48:05.534Z,97707.03
2017-10-22T14:49:44.721Z,97780.17
2017-10-22T14:51:23.174Z,97795.91
2017-10-22T14:53:02.480Z,97813.80
2017-10-22T14:54:40.954Z,97869.98
2017-10-22T14:56:19.629Z,97863.82
2017-10-22T14:57:58.110Z,97769.22
2017-10-22T14:59:36.685Z,97863.82
2017-10-22T15:01:15.511Z,97869.98
2017-10-22T15:02:55.364Z,97935.74
2017-10-22T15:04:34.719Z,97895.02
2017-10-22T15:06:13.800Z,97832.73
2017-10-22T15:07:51.852Z,97723.25
2017-10-22T15:09:30.180Z,97691.70
2017-10-22T15:11:09.532Z,97568.33
2017-10-22T15:12:49.425Z,97577.84
2017-10-22T15:14:27.346Z,97581.86
2017-10-22T15:16:09.538Z,97578.76
2017-10-22T15:17:48.828Z,97601.94
2017-10-22T15:19:27.469Z,97596.27
2017-10-22T15:21:07.376Z,97632.73
2017-10-22T15:22:46.525Z,97653.61
2017-10-22T15:24:26.197Z,97532.41
2017-10-22T15:26:05.911Z,97534.51
2017-10-22T15:27:46.220Z,97521.12
2017-10-22T15:29:25.424Z,97445.84
2017-10-22T15:31:06.166Z,97420.50
2017-10-22T15:32:45.154Z,97446.42
2017-10-22T15:34:22.645Z,97436.20
2017-10-22T15:36:01.892Z,97427.88
2017-10-22T15:37:40.744Z,97340.52
2017-10-22T15:39:20.620Z,97290.76
2017-10-22T15:40:58.210Z,97255.55
2017-10-22T15:42:38.719Z,97233.17
2017-10-22T15:44:17.634Z,97251.59
2017-10-22T15:45:56.220Z,97327.06
2017-10-22T15:47:36.147Z,97454.08
2017-10-22T15:49:14.996Z,97565.38
2017-10-22T15:50:52.444Z,97615.02
2017-10-22T15:52:29.849Z,97633.52
2017-10-22T15:54:08.157Z,97711.73
2017-10-22T15:55:47.171Z,97747.73
2017-10-22T15:57:24.197Z,97823.95
2017-10-22T15:59:01.995Z,97773.14
2017-10-22T16:00:41.715Z,97764.67
2017-10-22T16:02:19.336Z,97755.09
2017-10-22T16:03:57.286Z,97648.73
2017-10-22T16:05:34.141Z,97661.76
2017-10-22T16:07:11.453Z,97709.55
2017-10-22T16:08:49.654Z,97691.64
2017-10-22T16:10:27.154Z,97650.98
2017-10-22T16:12:05.391Z,97624.70
2017-10-22T16:13:44.054Z,97584.82
2017-10-22T16:15:22.289Z,97581.38
2017-10-22T16:17:01.229Z,97587.44
2017-10-22T16:18:40.627Z,97530.59
2017-10-22T16:20:17.961Z,97335.88
2017-10-22T16:21:57.299Z,97407.92
2017-10-22T16:23:36.311Z,97443.32
2017-10-22T16:25:13.568Z,97482.96
2017-10-22T16:26:50.547Z,97509.66
2017-10-22T16:28:28.332Z,97552.42
2017-10-22T16:30:08.276Z,97518.28
2017-10-22T16:31:47.094Z,97531.61
2017-10-22T16:33:24.916Z,97628.56
2017-10-22T16:35:03.725Z,97698.52
2017-10-22T16:36:42.638Z,97743.72
2017-10-22T16:38:20.386Z,97775.33
2017-10-22T16:39:58.321Z,97787.08
2017-10-22T16:41:36.310Z,97778.30
2017-10-22T16:43:27.221Z,97698.23
2017-10-22T16:45:09.757Z,97576.63
2017-10-22T16:46:56.737Z,97589.64
2017-10-22T16:48:46.014Z,97639.96
2017-10-22T16:50:27.071Z,97618.43
2017-10-22T16:52:11.303Z,97576.99
2017-10-22T16:53:50.116Z,97484.36
2017-10-22T16:55:31.213Z,97496.98
2017-10-22T16:57:12.760Z,97499.02
2017-10-22T16:58:56.086Z,97325.19
2017-10-22T17:00:36.466Z,97385.99
2017-10-22T17:02:14.131Z,97382.84
2017-10-22T17:03:54.244Z,97350.47
2017-10-22T17:05:34.606Z,97293.80
2017-10-22T17:07:12.182Z,97304.17
2017-10-22T17:08:49.499Z,97297.23
2017-10-22T17:10:28.774Z,97322.14
2017-10-22T17:12:08.898Z,97322.94
2017-10-22T17:13:49.561Z,97326.95
2017-10-22T17:15:30.339Z,97299.85
2017-10-22T17:17:09.663Z,97290.22
2017-10-22T17:18:50.594Z,97279.70
2017-10-22T17:20:32.452Z,97265.80
2017-10-22T17:22:14.451Z,97214.67
2017-10-22T17:23:57.187Z,97170.66
2017-10-22T17:25:39.815Z,97224.25
2017-10-22T17:27:17.950Z,97238.28
2017-10-22T17:28:57.686Z,97236.09
2017-10-22T17:30:36.260Z,97233.00
2017-10-22T17:32:15.317Z,97173.13
2017-10-22T17:33:54.540Z,97193.78
2017-10-22T17:35:32.261Z,97250.47
2017-10-22T17:37:09.478Z,97259.17
2017-10-22T17:38:48.436Z,97249.20
2017-10-22T17:40:26.268Z,97212.42
2017-10-22T17:42:05.781Z,97239.02
2017-10-22T17:43:46.521Z,97252.66
2017-10-22T17:45:28.012Z,97247.86
2017-10-22T17:47:07.422Z,97284.88
2017-10-22T17:48:49.363Z,97270.94
2017-10-22T17:50:27.386Z,97214.67
2017-10-22T17:52:06.226Z,97280.61
2017-10-22T17:53:43.988Z,97304.17
2017-10-22T17:55:21.674Z,97354.30
2017-10-22T17:56:59.022Z,97343.04
2017-10-22T17:58:36.240Z,97303.69
2017-10-22T18:00:16.305Z,97230.02
2017-10-22T18:01:57.438Z,97102.06
2017-10-22T18:03:36.326Z,97080.28
2017-10-22T18:05:13.932Z,97065.44
2017-10-22T18:06:52.858Z,97100.73
2017-10-22T18:08:33.906Z,97119.98
2017-10-22T18:10:12.891Z,97159.19
2017-10-22T18:11:52.015Z,97184.98
2017-10-22T18:13:29.909Z,97260.14
2017-10-22T18:15:09.212Z,97291.83
2017-10-22T18:16:48.890Z,97319.41
2017-10-22T18:18:31.596Z,97411.94
2017-10-22T18:20:11.629Z,97268.41
2017-10-22T18:21:50.914Z,97379.25
2017-10-22T18:23:33.769Z,97474.94
2017-10-22T18:25:14.701Z,97526.85
2017-10-22T18:26:55.001Z,97578.50
2017-10-22T18:28:37.992Z,97598.15
2017-10-22T18:30:18.958Z,97415.89
2017-10-22T18:32:00.351Z,97377.13
2017-10-22T18:33:42.378Z,97393.70
2017-10-22T18:35:22.028Z,97419.73
2017-10-22T18:37:03.992Z,97404.03
2017-10-22T18:38:43.652Z,97207.62
2017-10-22T18:40:25.746Z,97247.44
2017-10-22T18:42:05.474Z,97201.48
2017-10-22T18:43:45.725Z,97153.41
2017-10-22T18:45:26.485Z,97180.97
2017-10-22T18:47:05.652Z,97261.25
2017-10-22T18:48:47.264Z,97352.55
2017-10-22T18:50:27.717Z,97198.81
2017-10-22T18:52:05.573Z,97292.26
2017-10-22T18:53:43.379Z,97307.95
2017-10-22T18:55:21.633Z,97273.81
2017-10-22T18:57:01.310Z,97279.27
2017-10-22T18:58:44.440Z,97250.42
2017-10-22T19:00:38.075Z,97327.15
2017-10-22T19:02:29.619Z,97411.08
2017-10-22T19:04:25.136Z,97478.20
2017-10-22T19:06:16.017Z,97398.39
2017-10-22T19:08:06.566Z,97491.75
2017-10-22T19:09:50.894Z,97489.28
2017-10-22T19:11:30.945Z,97496.77
2017-10-22T19:13:20.421Z,97494.80
2017-10-22T19:15:02.137Z,97486.97
2017-10-22T19:16:45.474Z,97345.00
2017-10-22T19:18:26.560Z,97180.48
2017-10-22T19:20:08.634Z,97130.29